Time;durP1;ratioP1;P1;durP2;ratioP2;P2;SDS_P1;SDS_P2;PMS_P1;PMS_P2;Temp;Humidity;BMP_temperature;BMP_pressure;BME280_temperature;BME280_humidity;BME280_pressure;Samples;Min_cycle;Max_cycle;Signal;HPM_P1;HPM_P2
2023/07/02 00:00:08;;;;;;;3.47;1.80;;;;;;;19.43;42.45;100357.38;5070592;28;20037;-84
2023/07/02 00:02:36;;;;;;;3.22;1.77;;;;;;;19.41;42.76;100359.47;5072783;28;20364;-83
2023/07/02 00:05:05;;;;;;;3.67;1.60;;;;;;;19.40;42.54;100357.75;5069499;28;20418;-83
2023/07/02 00:07:35;;;;;;;3.50;1.63;;;;;;;19.40;42.51;100366.09;5073121;28;20444;-85
2023/07/02 00:10:06;;;;;;;3.60;1.88;;;;;;;19.40;42.64;100357.75;5068827;28;20072;-84
2023/07/02 00:12:34;;;;;;;3.38;1.60;;;;;;;19.39;42.63;100357.97;5062273;28;20045;-84
2023/07/02 00:15:05;;;;;;;3.90;1.80;;;;;;;19.41;42.42;100358.63;5070579;28;20151;-85
2023/07/02 00:17:34;;;;;;;4.90;1.73;;;;;;;19.40;42.68;100356.91;5068511;28;20045;-84
2023/07/02 00:20:08;;;;;;;4.32;2.05;;;;;;;19.40;42.57;100348.59;5073369;28;20072;-85
2023/07/02 00:22:37;;;;;;;4.80;1.90;;;;;;;19.38;42.10;100357.09;5069840;28;20090;-84
2023/07/02 00:25:05;;;;;;;2.65;1.60;;;;;;;19.39;42.28;100349.63;5068328;28;20065;-84
2023/07/02 00:27:33;;;;;;;4.68;2.22;;;;;;;19.38;42.57;100361.84;5071314;28;20040;-84
2023/07/02 00:30:01;;;;;;;3.03;1.75;;;;;;;19.36;42.39;100356.47;5074557;28;20041;-85
2023/07/02 00:32:31;;;;;;;3.15;1.75;;;;;;;19.38;42.22;100353.50;5069315;28;20052;-85
2023/07/02 00:34:59;;;;;;;3.38;1.77;;;;;;;19.35;42.26;100354.75;5075576;28;20076;-85
2023/07/02 00:37:27;;;;;;;4.43;1.92;;;;;;;19.34;42.51;100353.03;5076681;28;20036;-85
2023/07/02 00:39:58;;;;;;;3.88;1.98;;;;;;;19.34;41.75;100366.91;5073500;28;20032;-85
2023/07/02 00:42:29;;;;;;;3.80;2.10;;;;;;;19.33;42.00;100361.56;5073001;28;20068;-85
2023/07/02 00:45:02;;;;;;;4.90;2.17;;;;;;;19.31;41.99;100350.66;5068875;28;20050;-84
2023/07/02 00:47:34;;;;;;;3.97;1.98;;;;;;;19.34;41.66;100354.97;5080755;22;20053;-80
2023/07/02 00:50:03;;;;;;;4.05;2.20;;;;;;;19.30;41.97;100364.72;5041207;28;20092;-81
2023/07/02 00:52:31;;;;;;;4.38;2.22;;;;;;;19.30;41.79;100354.50;5025388;28;20128;-80
2023/07/02 00:54:59;;;;;;;5.07;2.63;;;;;;;19.30;41.77;100357.25;5057791;28;20087;-80
2023/07/02 00:57:29;;;;;;;5.32;2.33;;;;;;;19.30;41.58;100350.84;5040585;28;20104;-80
2023/07/02 01:00:00;;;;;;;4.43;2.60;;;;;;;19.31;41.69;100358.13;5049270;28;20098;-81
2023/07/02 01:02:31;;;;;;;6.40;3.30;;;;;;;19.30;41.51;100360.03;5045784;28;20060;-80
2023/07/02 01:05:00;;;;;;;5.30;2.47;;;;;;;19.29;41.49;100349.19;5040074;28;20460;-81
2023/07/02 01:07:29;;;;;;;4.95;3.22;;;;;;;19.27;41.29;100352.16;5042112;28;20408;-80
2023/07/02 01:09:57;;;;;;;6.32;2.70;;;;;;;19.27;41.18;100349.38;5045946;28;20577;-80
2023/07/02 01:12:27;;;;;;;5.63;3.33;;;;;;;19.26;40.84;100350.44;5079973;28;20053;-80
2023/07/02 01:14:59;;;;;;;6.35;2.92;;;;;;;19.26;40.83;100351.28;5044322;28;20139;-79
2023/07/02 01:17:37;;;;;;;6.07;3.63;;;;;;;19.22;40.72;100346.34;5047172;28;20044;-80
2023/07/02 01:20:09;;;;;;;6.00;3.25;;;;;;;19.23;40.70;100348.06;5042228;28;20045;-80
2023/07/02 01:22:38;;;;;;;6.43;3.27;;;;;;;19.18;40.85;100339.47;5049734;28;20418;-80
2023/07/02 01:25:08;;;;;;;6.85;3.70;;;;;;;19.21;40.92;100342.69;5050812;28;20259;-80
2023/07/02 01:27:37;;;;;;;6.28;4.00;;;;;;;19.20;40.60;100342.91;5044526;28;20051;-80
2023/07/02 01:30:08;;;;;;;6.72;3.92;;;;;;;19.20;40.99;100349.34;5047023;28;20053;-80
2023/07/02 01:32:36;;;;;;;7.43;4.05;;;;;;;19.18;40.81;100347.78;5079749;28;20041;-80
2023/07/02 01:35:04;;;;;;;6.90;4.22;;;;;;;19.17;40.81;100343.28;5048201;28;20135;-80
2023/07/02 01:37:37;;;;;;;6.80;3.90;;;;;;;19.19;40.47;100344.81;5043494;28;20075;-80
2023/07/02 01:40:08;;;;;;;6.53;4.03;;;;;;;19.16;40.20;100347.97;5046774;28;20132;-80
2023/07/02 01:42:36;;;;;;;7.18;4.03;;;;;;;19.15;40.23;100350.94;5049038;28;20475;-80
2023/07/02 01:45:04;;;;;;;7.13;4.40;;;;;;;19.14;40.33;100357.56;5049069;28;20120;-81
2023/07/02 01:47:32;;;;;;;8.65;4.35;;;;;;;19.13;40.45;100353.09;5043579;28;20072;-81
2023/07/02 01:50:00;;;;;;;8.35;4.70;;;;;;;19.12;40.30;100343.06;5044360;28;20349;-81
2023/07/02 01:52:32;;;;;;;8.18;4.03;;;;;;;19.11;40.23;100330.25;5049859;28;20223;-79
2023/07/02 01:55:03;;;;;;;7.07;4.45;;;;;;;19.11;40.35;100328.31;5049105;28;20072;-79
2023/07/02 01:57:32;;;;;;;8.27;4.85;;;;;;;19.09;40.02;100337.91;5051624;28;20098;-79
2023/07/02 02:00:00;;;;;;;8.60;4.97;;;;;;;19.06;40.18;100332.75;5049455;28;20132;-80
2023/07/02 02:02:28;;;;;;;8.25;4.53;;;;;;;19.04;40.42;100340.44;5045794;28;20591;-81
2023/07/02 02:04:57;;;;;;;8.48;4.68;;;;;;;19.02;40.34;100343.41;5043157;28;20124;-81
2023/07/02 02:07:25;;;;;;;7.93;5.00;;;;;;;19.00;40.16;100353.84;5038832;28;20128;-80
2023/07/02 02:09:54;;;;;;;7.82;4.80;;;;;;;18.97;40.17;100348.69;5044660;28;20040;-81
2023/07/02 02:12:23;;;;;;;10.45;5.25;;;;;;;18.98;40.10;100355.09;5049354;28;20060;-81
2023/07/02 02:14:52;;;;;;;9.55;5.45;;;;;;;18.94;40.10;100357.44;5082251;28;20585;-80
2023/07/02 02:17:20;;;;;;;9.90;5.35;;;;;;;18.92;40.17;100358.69;5078497;28;20048;-80
2023/07/02 02:19:48;;;;;;;9.20;5.20;;;;;;;18.92;40.32;100361.44;5044539;28;20036;-82
2023/07/02 02:22:16;;;;;;;8.70;5.22;;;;;;;18.91;40.46;100363.34;5079898;28;20044;-80
2023/07/02 02:24:43;;;;;;;10.40;5.85;;;;;;;18.88;40.28;100366.56;5082013;28;20075;-81
2023/07/02 02:27:11;;;;;;;10.15;5.88;;;;;;;18.89;40.04;100376.56;5047000;28;20047;-83
2023/07/02 02:29:41;;;;;;;8.48;5.65;;;;;;;18.89;40.20;100377.41;5046438;28;20059;-83
2023/07/02 02:32:09;;;;;;;11.68;5.82;;;;;;;18.87;40.08;100381.47;5045175;28;20431;-82
2023/07/02 02:34:37;;;;;;;11.38;6.25;;;;;;;18.85;40.30;100378.88;5048700;28;20044;-82
2023/07/02 02:37:05;;;;;;;8.90;5.93;;;;;;;18.85;40.13;100380.81;5047917;28;20069;-83
2023/07/02 02:39:34;;;;;;;10.55;5.93;;;;;;;18.84;39.88;100384.63;5047960;28;20048;-82
2023/07/02 02:42:03;;;;;;;10.52;6.32;;;;;;;18.84;39.86;100385.50;5043346;28;20095;-82
2023/07/02 02:44:32;;;;;;;8.85;5.88;;;;;;;18.82;39.74;100382.06;5050021;28;20044;-83
2023/07/02 02:47:02;;;;;;;16.02;7.57;;;;;;;18.84;40.15;100384.63;5042418;28;20072;-81
2023/07/02 02:49:31;;;;;;;13.90;6.15;;;;;;;18.82;40.35;100386.75;5079573;28;20033;-81
2023/07/02 02:51:59;;;;;;;11.18;6.47;;;;;;;18.81;40.49;100376.69;5047086;28;20482;-82
2023/07/02 02:54:26;;;;;;;11.10;6.45;;;;;;;18.82;40.28;100382.06;5052281;28;20427;-82
2023/07/02 02:56:54;;;;;;;11.77;6.97;;;;;;;18.83;39.97;100382.91;5043393;28;20488;-83
2023/07/02 02:59:22;;;;;;;10.82;6.75;;;;;;;18.83;40.12;100388.47;5041754;28;20124;-82
2023/07/02 03:01:51;;;;;;;11.75;6.47;;;;;;;18.82;40.30;100386.75;5043330;28;20048;-81
2023/07/02 03:04:24;;;;;;;11.25;6.93;;;;;;;18.84;39.76;100384.63;5075271;28;20045;-81
2023/07/02 03:06:53;;;;;;;13.23;7.75;;;;;;;18.81;40.12;100391.44;5079927;28;20061;-81
2023/07/02 03:09:21;;;;;;;11.63;6.95;;;;;;;18.81;39.98;100391.44;5047622;28;20508;-79
2023/07/02 03:11:49;;;;;;;14.18;8.00;;;;;;;18.83;40.00;100391.22;5049001;28;20124;-81
2023/07/02 03:14:17;;;;;;;12.38;7.15;;;;;;;18.83;39.86;100399.56;5051104;28;20071;-80
2023/07/02 03:16:46;;;;;;;12.45;7.43;;;;;;;18.81;40.00;100393.34;5051463;28;20110;-81
2023/07/02 03:19:15;;;;;;;13.38;7.72;;;;;;;18.83;40.04;100394.00;5048479;28;20061;-80
2023/07/02 03:21:45;;;;;;;12.63;7.80;;;;;;;18.85;39.99;100392.75;5062835;28;20045;-80
2023/07/02 03:24:13;;;;;;;14.43;8.10;;;;;;;18.83;40.09;100397.63;5047699;28;20563;-80
2023/07/02 03:26:41;;;;;;;13.75;8.20;;;;;;;18.85;40.24;100400.22;5081111;28;20371;-81
2023/07/02 03:29:10;;;;;;;12.65;7.65;;;;;;;18.86;40.00;100400.03;5044761;28;20536;-81
2023/07/02 03:31:38;;;;;;;12.15;7.57;;;;;;;18.84;39.69;100404.91;5048912;28;20073;-80
2023/07/02 03:34:08;;;;;;;11.98;7.95;;;;;;;18.87;39.77;100404.50;5045706;28;20041;-81
2023/07/02 03:36:37;;;;;;;12.48;7.63;;;;;;;18.85;40.12;100403.00;5084142;28;20056;-80
2023/07/02 03:39:06;;;;;;;14.27;8.55;;;;;;;18.87;40.13;100404.50;5057629;28;20029;-79
2023/07/02 03:41:37;;;;;;;13.88;8.48;;;;;;;18.83;40.01;100397.63;5090503;28;20063;-80
2023/07/02 03:44:06;;;;;;;14.48;8.25;;;;;;;18.83;39.88;100408.72;5047041;28;20052;-80
2023/07/02 03:46:34;;;;;;;13.07;8.15;;;;;;;18.85;39.85;100414.94;5045784;28;20053;-79
2023/07/02 03:49:02;;;;;;;12.43;7.97;;;;;;;18.84;39.97;100406.81;5048651;28;20048;-79
2023/07/02 03:51:30;;;;;;;14.35;8.57;;;;;;;18.84;39.83;100415.13;5049001;28;20041;-81
2023/07/02 03:53:59;;;;;;;13.63;8.20;;;;;;;18.85;39.80;100414.94;5049972;28;20080;-80
2023/07/02 03:56:28;;;;;;;13.32;8.02;;;;;;;18.85;39.68;100419.63;5048216;28;20047;-81
2023/07/02 03:58:56;;;;;;;14.68;7.97;;;;;;;18.83;39.75;100419.81;5060787;28;20173;-80
2023/07/02 04:01:24;;;;;;;15.77;9.07;;;;;;;18.82;39.82;100426.41;5045041;28;20530;-79
2023/07/02 04:03:53;;;;;;;14.88;8.77;;;;;;;18.84;40.06;100435.41;5052119;28;20120;-81
2023/07/02 04:06:21;;;;;;;12.90;8.48;;;;;;;18.83;39.61;100432.81;5049046;28;20067;-80
2023/07/02 04:08:49;;;;;;;13.82;9.30;;;;;;;18.83;39.75;100428.13;5050352;28;20121;-78
2023/07/02 04:11:17;;;;;;;14.45;8.82;;;;;;;18.83;39.83;100444.78;5046612;28;20041;-79
2023/07/02 04:13:47;;;;;;;14.55;9.00;;;;;;;18.85;39.75;100441.81;5052636;28;20033;-79
2023/07/02 04:16:15;;;;;;;13.90;8.20;;;;;;;18.82;39.92;100443.06;5045008;28;20052;-80
2023/07/02 04:18:43;;;;;;;15.48;8.63;;;;;;;18.83;39.77;100450.31;5049432;28;20041;-80
2023/07/02 04:21:11;;;;;;;15.95;9.15;;;;;;;18.82;39.88;100447.72;5051413;28;20330;-81
2023/07/02 04:23:39;;;;;;;14.95;9.05;;;;;;;18.83;40.10;100453.09;5051372;28;20103;-79
2023/07/02 04:26:07;;;;;;;15.20;9.35;;;;;;;18.82;40.07;100456.06;5044196;28;20054;-79
2023/07/02 04:28:56;;;;;;;12.68;8.40;;;;;;;18.84;39.86;100451.19;5044144;28;20045;-78
2023/07/02 04:31:25;;;;;;;13.80;9.25;;;;;;;18.84;39.98;100459.50;5078858;28;20568;-79
2023/07/02 04:33:52;;;;;;;14.27;9.10;;;;;;;18.84;39.93;100452.03;5050248;28;20075;-79
2023/07/02 04:36:20;;;;;;;15.50;9.68;;;;;;;18.84;40.04;100453.94;5040494;28;20136;-78
2023/07/02 04:38:48;;;;;;;16.20;9.45;;;;;;;18.83;39.87;100450.31;5049869;28;20080;-80
2023/07/02 04:41:18;;;;;;;15.35;9.45;;;;;;;18.86;40.03;100463.78;5049469;28;20037;-82
2023/07/02 04:43:46;;;;;;;15.40;10.10;;;;;;;18.84;40.23;100465.91;5047723;28;20136;-79
2023/07/02 04:46:15;;;;;;;15.32;9.52;;;;;;;18.88;39.93;100467.19;5046499;28;20440;-80
2023/07/02 04:48:43;;;;;;;16.75;10.13;;;;;;;18.86;39.81;100471.25;5045039;28;20041;-80
2023/07/02 04:51:11;;;;;;;16.55;10.13;;;;;;;18.85;39.86;100467.63;5047753;28;20056;-81
2023/07/02 04:53:39;;;;;;;16.70;10.35;;;;;;;18.87;39.76;100470.19;5044410;28;20129;-82
2023/07/02 04:56:07;;;;;;;16.38;9.95;;;;;;;18.86;40.03;100476.78;5044372;28;20041;-82
2023/07/02 04:58:35;;;;;;;16.02;9.75;;;;;;;18.84;39.75;100479.75;5045109;28;20049;-80
2023/07/02 05:01:04;;;;;;;15.27;9.77;;;;;;;18.85;39.85;100473.16;5046554;28;20167;-80
2023/07/02 05:03:34;;;;;;;15.65;10.50;;;;;;;18.87;39.77;100487.69;5048518;28;20049;-81
2023/07/02 05:06:02;;;;;;;14.90;10.02;;;;;;;18.86;39.74;100488.75;5049426;28;20033;-80
2023/07/02 05:08:30;;;;;;;17.48;10.18;;;;;;;18.86;39.91;100490.66;5049950;28;20049;-81
2023/07/02 05:10:58;;;;;;;17.17;10.25;;;;;;;18.86;39.78;100493.44;5050543;28;20101;-81
2023/07/02 05:13:26;;;;;;;17.23;10.18;;;;;;;18.86;39.92;100490.66;5050611;28;20099;-81
2023/07/02 05:15:53;;;;;;;16.27;10.38;;;;;;;18.87;40.11;100495.16;5052980;28;20040;-80
2023/07/02 05:18:21;;;;;;;16.88;11.15;;;;;;;18.87;40.23;100489.59;5050639;28;20073;-81
2023/07/02 05:20:50;;;;;;;15.55;10.10;;;;;;;18.90;40.06;100489.19;5051352;28;20059;-79
2023/07/02 05:23:18;;;;;;;16.40;10.82;;;;;;;18.89;40.09;100495.78;5073079;28;20082;-79
2023/07/02 05:25:46;;;;;;;18.63;10.23;;;;;;;18.89;40.13;100502.19;5068433;28;20084;-80
2023/07/02 05:28:14;;;;;;;16.17;10.10;;;;;;;18.88;40.09;100500.47;5062838;28;20056;-80
2023/07/02 05:30:42;;;;;;;17.75;10.88;;;;;;;18.90;40.21;100511.38;5046423;28;20485;-81
2023/07/02 05:33:10;;;;;;;18.30;10.45;;;;;;;18.91;40.21;100504.78;5044012;28;20087;-78
2023/07/02 05:35:38;;;;;;;18.33;10.30;;;;;;;18.92;40.19;100512.03;5045635;28;20130;-80
2023/07/02 05:38:07;;;;;;;15.20;10.10;;;;;;;18.95;40.23;100500.56;5043566;28;20053;-79
2023/07/02 05:40:35;;;;;;;16.40;10.07;;;;;;;18.95;40.05;100516.34;5043298;28;20045;-80
2023/07/02 05:43:03;;;;;;;16.45;10.45;;;;;;;18.95;39.92;100510.81;5045547;28;20427;-82
2023/07/02 05:45:31;;;;;;;16.38;10.30;;;;;;;18.97;40.42;100516.97;5046877;28;20469;-81
2023/07/02 05:47:59;;;;;;;16.65;10.65;;;;;;;18.98;40.05;100515.94;5047092;28;20552;-80
2023/07/02 05:50:27;;;;;;;18.55;10.80;;;;;;;18.96;40.17;100518.94;5048318;28;20040;-81
2023/07/02 05:52:55;;;;;;;18.10;10.70;;;;;;;19.00;40.00;100524.91;5047443;28;20449;-80
2023/07/02 05:55:25;;;;;;;18.45;10.82;;;;;;;19.04;40.10;100529.91;5044744;28;20393;-80
2023/07/02 05:57:52;;;;;;;16.45;10.38;;;;;;;19.03;40.04;100524.53;5043911;28;20663;-82
2023/07/02 06:00:21;;;;;;;18.38;10.50;;;;;;;19.05;40.20;100522.44;5046645;28;20053;-82
2023/07/02 06:02:49;;;;;;;19.45;10.95;;;;;;;19.07;40.17;100525.84;5046608;28;20057;-79
2023/07/02 06:05:17;;;;;;;15.93;10.90;;;;;;;19.07;40.09;100523.06;5049763;28;20484;-79
2023/07/02 06:07:45;;;;;;;14.70;10.85;;;;;;;19.05;39.97;100531.59;5045383;28;20526;-80
2023/07/02 06:10:13;;;;;;;16.67;11.15;;;;;;;19.07;40.07;100532.25;5060237;28;20044;-79
2023/07/02 06:12:43;;;;;;;17.55;10.75;;;;;;;19.10;40.06;100542.97;5049064;28;20041;-79
2023/07/02 06:15:11;;;;;;;15.70;10.23;;;;;;;19.11;39.87;100541.06;5042397;28;20041;-82
2023/07/02 06:17:39;;;;;;;17.40;10.85;;;;;;;19.11;39.94;100544.69;5041895;28;20119;-80
2023/07/02 06:20:08;;;;;;;15.50;10.30;;;;;;;19.15;39.79;100534.91;5045775;28;20144;-80
2023/07/02 06:22:36;;;;;;;15.25;10.18;;;;;;;19.17;39.77;100541.09;5045372;28;20095;-79
2023/07/02 06:25:05;;;;;;;17.88;9.63;;;;;;;19.22;39.81;100552.50;5045647;28;20139;-79
2023/07/02 06:27:33;;;;;;;15.98;9.85;;;;;;;19.26;39.81;100555.75;5042234;28;20227;-80
2023/07/02 06:30:02;;;;;;;17.80;10.10;;;;;;;19.32;39.70;100542.97;5044161;28;20045;-80
2023/07/02 06:32:30;;;;;;;17.00;9.93;;;;;;;19.32;39.54;100552.16;5041505;28;20131;-81
2023/07/02 06:34:58;;;;;;;16.17;10.00;;;;;;;19.38;39.59;100565.22;5044681;28;20049;-79
2023/07/02 06:37:26;;;;;;;15.20;10.25;;;;;;;19.41;39.55;100559.28;5045094;28;20122;-79
2023/07/02 06:39:55;;;;;;;16.08;9.60;;;;;;;19.45;39.27;100557.84;5043364;28;20136;-80
2023/07/02 06:42:23;;;;;;;15.27;10.38;;;;;;;19.49;39.38;100552.75;5045705;28;20119;-78
2023/07/02 06:44:51;;;;;;;16.63;10.40;;;;;;;19.53;39.58;100559.63;5049158;28;20512;-80
2023/07/02 06:47:20;;;;;;;16.58;10.30;;;;;;;19.58;39.53;100555.19;5030322;23;20138;-80
2023/07/02 06:49:48;;;;;;;16.05;10.15;;;;;;;19.60;39.33;100566.94;4989648;28;20068;-80
2023/07/02 06:52:16;;;;;;;15.43;9.45;;;;;;;19.67;39.25;100572.56;4993096;28;20055;-81
2023/07/02 06:54:44;;;;;;;15.50;9.82;;;;;;;19.72;39.18;100570.00;4998039;28;20065;-81
2023/07/02 06:57:13;;;;;;;16.98;10.00;;;;;;;19.76;39.11;100578.81;5002395;28;20124;-81
2023/07/02 06:59:41;;;;;;;17.73;10.88;;;;;;;19.79;39.08;100579.25;5017978;28;20041;-82
2023/07/02 07:02:09;;;;;;;16.58;10.55;;;;;;;19.82;38.87;100578.88;5020732;28;20066;-82
2023/07/02 07:04:39;;;;;;;16.13;10.77;;;;;;;19.88;38.81;100579.97;5021925;28;20050;-81
2023/07/02 07:07:06;;;;;;;15.18;9.45;;;;;;;19.90;38.78;100583.41;5021002;28;20054;-82
2023/07/02 07:09:34;;;;;;;16.38;9.95;;;;;;;19.93;38.64;100583.91;5024082;28;20081;-82
2023/07/02 07:12:02;;;;;;;15.90;9.50;;;;;;;19.97;38.47;100584.34;5018116;28;20096;-81
2023/07/02 07:14:30;;;;;;;15.07;10.00;;;;;;;20.01;38.53;100586.53;5020465;28;20774;-82
2023/07/02 07:16:58;;;;;;;15.02;9.40;;;;;;;20.06;38.23;100582.25;5017921;28;20105;-81
2023/07/02 07:19:26;;;;;;;14.75;9.52;;;;;;;20.11;38.10;100588.09;5020042;28;20042;-81
2023/07/02 07:21:55;;;;;;;14.77;9.00;;;;;;;20.15;37.92;100587.47;5012685;28;20497;-81
2023/07/02 07:24:23;;;;;;;15.52;9.07;;;;;;;20.17;37.80;100588.13;5014266;28;20129;-82
2023/07/02 07:26:51;;;;;;;14.93;9.18;;;;;;;20.22;37.60;100584.72;5011265;28;20112;-82
2023/07/02 07:29:19;;;;;;;13.95;8.45;;;;;;;20.24;37.69;100586.25;5011997;28;20501;-81
2023/07/02 07:31:47;;;;;;;14.40;9.40;;;;;;;20.27;37.46;100588.63;5013194;28;20338;-82
2023/07/02 07:34:14;;;;;;;15.50;8.43;;;;;;;20.32;37.31;100599.13;5013033;28;20050;-82
2023/07/02 07:36:42;;;;;;;15.40;8.85;;;;;;;20.34;36.77;100583.97;5011709;28;20513;-82
2023/07/02 07:39:12;;;;;;;16.80;9.23;;;;;;;20.42;36.90;100595.97;5011381;28;20049;-82
2023/07/02 07:41:39;;;;;;;14.80;9.10;;;;;;;20.42;36.62;100601.53;5012433;28;20060;-82
2023/07/02 07:44:07;;;;;;;13.68;8.43;;;;;;;20.45;36.49;100604.75;5027932;28;20131;-82
2023/07/02 07:46:35;;;;;;;13.57;8.50;;;;;;;20.48;36.22;100609.03;5011002;28;20473;-82
2023/07/02 07:49:03;;;;;;;13.35;8.35;;;;;;;20.49;36.23;100606.06;5013538;28;20041;-82
2023/07/02 07:51:31;;;;;;;13.63;8.07;;;;;;;20.51;36.15;100603.09;5013787;28;20040;-82
2023/07/02 07:53:59;;;;;;;12.60;8.20;;;;;;;20.53;35.93;100607.34;5011942;28;20552;-81
2023/07/02 07:56:28;;;;;;;12.60;7.80;;;;;;;20.57;35.72;100617.00;5009571;28;20149;-82
2023/07/02 07:58:56;;;;;;;14.02;8.40;;;;;;;20.55;35.63;100605.22;5011335;28;20072;-81
2023/07/02 08:01:27;;;;;;;12.80;7.78;;;;;;;20.60;35.05;100594.41;5010526;28;20398;-81
2023/07/02 08:03:55;;;;;;;15.77;9.40;;;;;;;20.59;35.30;100611.28;5011934;28;20045;-81
2023/07/02 08:06:23;;;;;;;15.98;8.65;;;;;;;20.59;35.04;100606.59;5008214;28;20398;-80
2023/07/02 08:08:51;;;;;;;14.73;8.57;;;;;;;20.58;35.09;100604.81;5010394;28;20048;-81
2023/07/02 08:11:19;;;;;;;14.00;8.80;;;;;;;20.60;35.19;100615.78;5009223;28;20065;-80
2023/07/02 08:13:48;;;;;;;13.95;8.98;;;;;;;20.63;35.19;100615.34;5011958;28;20574;-79
2023/07/02 08:16:19;;;;;;;19.25;9.20;;;;;;;20.59;35.18;100606.59;5012396;28;20041;-80
2023/07/02 08:18:47;;;;;;;14.48;9.30;;;;;;;20.64;34.93;100617.94;5013610;28;20038;-80
2023/07/02 08:21:15;;;;;;;14.63;9.85;;;;;;;20.64;35.28;100620.72;5011592;28;20042;-80
2023/07/02 08:23:43;;;;;;;15.57;9.55;;;;;;;20.66;35.04;100621.38;5011428;28;20035;-79
2023/07/02 08:26:11;;;;;;;17.45;10.07;;;;;;;20.66;35.04;100632.50;5008844;28;20129;-79
2023/07/02 08:28:39;;;;;;;16.98;9.60;;;;;;;20.66;35.11;100628.84;5007541;28;20497;-80
2023/07/02 08:31:09;;;;;;;16.42;9.70;;;;;;;20.67;34.94;100641.69;5007378;28;20863;-80
2023/07/02 08:33:37;;;;;;;13.57;9.30;;;;;;;20.62;35.04;100636.72;5011315;28;20060;-80
2023/07/02 08:36:05;;;;;;;14.07;9.18;;;;;;;20.62;35.21;100641.44;5011587;28;20461;-79
2023/07/02 08:38:32;;;;;;;13.63;9.23;;;;;;;20.60;35.04;100636.09;5014817;28;20054;-80
2023/07/02 08:41:00;;;;;;;15.38;9.57;;;;;;;20.60;35.06;100635.25;5012145;28;20104;-82
2023/07/02 08:43:30;;;;;;;14.88;8.57;;;;;;;20.61;35.01;100639.75;5013097;28;20053;-82
2023/07/02 08:45:58;;;;;;;14.15;9.27;;;;;;;20.59;35.20;100639.94;5022645;28;20042;-80
2023/07/02 08:48:29;;;;;;;15.95;9.50;;;;;;;20.60;34.97;100640.81;5003068;28;20584;-79
2023/07/02 08:50:57;;;;;;;17.13;9.45;;;;;;;20.58;34.95;100640.13;5014878;28;20060;-79
2023/07/02 08:53:29;;;;;;;14.63;9.63;;;;;;;20.56;35.08;100640.31;5006497;28;20155;-80
2023/07/02 08:55:57;;;;;;;15.90;9.10;;;;;;;20.53;34.84;100649.06;5014144;28;20050;-79
2023/07/02 08:58:25;;;;;;;15.18;9.10;;;;;;;20.53;34.77;100640.72;5011793;28;20452;-82
2023/07/02 09:01:05;;;;;;;16.35;9.35;;;;;;;20.55;34.39;100651.63;5010055;28;20088;-81
2023/07/02 09:03:36;;;;;;;16.08;9.40;;;;;;;20.51;34.55;100644.78;5014041;28;20045;-81
2023/07/02 09:06:05;;;;;;;15.68;9.60;;;;;;;20.45;34.71;100651.16;5009639;28;20045;-80
2023/07/02 09:08:34;;;;;;;15.00;9.00;;;;;;;20.44;34.84;100653.09;5007260;28;20444;-82
2023/07/02 09:11:10;;;;;;;15.45;9.20;;;;;;;20.44;34.84;100646.66;5012345;28;20501;-82
2023/07/02 09:13:46;;;;;;;12.48;8.88;;;;;;;20.43;34.72;100654.16;5024982;28;20406;-82
2023/07/02 09:16:25;;;;;;;16.27;9.52;;;;;;;20.43;34.78;100656.06;5011055;28;20495;-83
2023/07/02 09:18:59;;;;;;;16.38;9.50;;;;;;;20.39;34.75;100656.47;5009085;28;20046;-79
2023/07/02 09:21:28;;;;;;;13.65;9.00;;;;;;;20.41;34.85;100650.69;5006876;28;20046;-82
2023/07/02 09:23:56;;;;;;;15.30;9.25;;;;;;;20.39;34.89;100656.47;5007204;28;20042;-82
2023/07/02 09:26:25;;;;;;;15.18;9.50;;;;;;;20.40;34.89;100660.09;5008743;28;20034;-80
2023/07/02 09:29:01;;;;;;;15.38;9.35;;;;;;;20.44;34.79;100666.13;5010918;28;20569;-79
2023/07/02 09:31:29;;;;;;;14.88;9.05;;;;;;;20.38;34.93;100659.44;5005990;28;20493;-79
2023/07/02 09:34:03;;;;;;;17.35;9.77;;;;;;;20.42;34.78;100671.03;5010958;28;20069;-79
2023/07/02 09:36:31;;;;;;;14.02;9.02;;;;;;;20.36;35.02;100662.44;5004505;28;20029;-79
2023/07/02 09:39:00;;;;;;;15.45;9.52;;;;;;;20.37;34.97;100666.06;5011185;28;20552;-79
2023/07/02 09:41:28;;;;;;;16.92;9.32;;;;;;;20.35;34.92;100668.19;5012918;28;20342;-79
2023/07/02 09:43:56;;;;;;;14.13;9.15;;;;;;;20.34;35.29;100664.56;5009556;28;20121;-79
2023/07/02 09:46:24;;;;;;;15.10;9.07;;;;;;;20.34;35.21;100656.22;5009320;28;20155;-80
2023/07/02 09:48:53;;;;;;;14.15;8.82;;;;;;;20.35;35.28;100655.16;5015386;28;20042;-80
2023/07/02 09:51:24;;;;;;;16.00;9.82;;;;;;;20.38;34.79;100665.84;5010280;28;20042;-80
2023/07/02 09:53:52;;;;;;;16.40;10.25;;;;;;;20.38;35.08;100663.06;5011315;28;20532;-82
2023/07/02 09:56:21;;;;;;;15.30;10.10;;;;;;;20.39;35.20;100664.81;5009758;28;20046;-81
2023/07/02 10:02:13;;;;;;;15.18;9.20;;;;;;;20.40;34.80;100662.88;4987741;28;20504;-84
2023/07/02 10:05:22;;;;;;;15.45;9.80;;;;;;;20.41;34.65;100661.81;5020057;28;20038;-84
2023/07/02 10:08:22;;;;;;;16.25;9.68;;;;;;;20.42;34.34;100674.66;4936323;28;20409;-84
2023/07/02 10:11:36;;;;;;;16.02;9.65;;;;;;;20.43;34.75;100676.38;4993874;28;20053;-85
2023/07/02 10:14:23;;;;;;;15.50;9.18;;;;;;;20.44;34.61;100683.66;5001167;28;20049;-85
2023/07/02 10:23:41;;;;;;;17.10;9.73;;;;;;;20.42;33.95;100674.66;5004844;28;20042;-84
2023/07/02 10:37:58;;;;;;;13.45;7.65;;;;;;;20.24;34.44;100694.63;4939564;28;20050;-85
2023/07/02 10:40:33;;;;;;;10.93;6.95;;;;;;;20.29;34.65;100694.00;5026367;28;20034;-83
2023/07/02 10:43:04;;;;;;;12.88;7.05;;;;;;;20.28;34.19;100693.13;5019564;28;20060;-84
2023/07/02 10:45:34;;;;;;;10.82;7.32;;;;;;;20.31;34.27;100694.66;5023854;28;20046;-84
2023/07/02 10:48:09;;;;;;;12.38;7.22;;;;;;;20.34;33.50;100692.34;5017112;28;20046;-85
2023/07/02 10:50:40;;;;;;;11.75;8.57;;;;;;;20.33;33.82;100700.88;5013454;28;20433;-85
2023/07/02 10:53:16;;;;;;;11.35;6.82;;;;;;;20.38;33.19;100698.34;5015545;28;20041;-83
2023/07/02 10:55:54;;;;;;;13.73;7.95;;;;;;;20.40;33.15;100701.78;5015315;28;20069;-85
2023/07/02 11:07:00;;;;;;;10.63;6.55;;;;;;;20.38;33.21;100693.66;4991637;23;20649;-76
2023/07/02 11:09:28;;;;;;;10.18;6.20;;;;;;;20.44;32.99;100692.00;5023300;28;20532;-75
2023/07/02 11:12:00;;;;;;;10.10;6.97;;;;;;;20.50;32.63;100687.53;5018320;28;20095;-74
2023/07/02 11:14:29;;;;;;;12.98;6.80;;;;;;;20.50;33.11;100682.84;5040773;28;20049;-74
2023/07/02 11:16:57;;;;;;;10.00;6.10;;;;;;;20.54;32.71;100692.47;5025650;28;20099;-73
2023/07/02 11:19:25;;;;;;;10.05;6.57;;;;;;;20.58;32.77;100693.81;5025394;28;20397;-75
2023/07/02 11:21:56;;;;;;;10.82;6.68;;;;;;;20.62;32.76;100706.25;5022564;28;20050;-75
2023/07/02 11:24:32;;;;;;;10.00;6.93;;;;;;;20.69;31.98;100695.19;5026312;28;20095;-73
2023/07/02 11:27:02;;;;;;;13.85;6.97;;;;;;;20.70;32.30;100697.75;5020159;28;20057;-74
2023/07/02 11:29:32;;;;;;;12.75;7.18;;;;;;;20.74;32.00;100701.84;5024154;28;20065;-75
2023/07/02 11:32:07;;;;;;;27.70;18.20;;;;;;;20.80;31.46;100697.38;5021261;28;20133;-73
2023/07/02 11:34:35;;;;;;;14.77;9.70;;;;;;;20.81;32.12;100698.25;5023266;28;20456;-76
2023/07/02 11:37:04;;;;;;;13.93;9.18;;;;;;;20.84;31.88;100692.28;5023029;28;20621;-74
2023/07/02 11:39:32;;;;;;;36.60;26.52;;;;;;;20.90;31.87;100702.56;5026572;28;20042;-78
2023/07/02 11:42:01;;;;;;;57.63;30.35;;;;;;;20.97;31.91;100700.69;5022694;28;20053;-74
2023/07/02 11:44:29;;;;;;;22.23;16.90;;;;;;;20.99;31.81;100691.06;5023493;28;20045;-74
2023/07/02 11:46:57;;;;;;;18.15;11.88;;;;;;;21.05;31.64;100698.59;5023765;28;20148;-65
2023/07/02 11:49:25;;;;;;;15.32;9.13;;;;;;;21.10;31.88;100690.50;5018446;28;20056;-64
2023/07/02 11:51:53;;;;;;;10.55;7.13;;;;;;;21.15;31.92;100696.28;5024989;28;20041;-64
2023/07/02 11:54:21;;;;;;;12.05;7.35;;;;;;;21.22;32.01;100684.31;5017378;28;20061;-66
2023/07/02 11:56:49;;;;;;;12.45;7.22;;;;;;;21.28;31.59;100681.56;5019537;28;20053;-66